createdAt,value
2022-12-12T00:01:32.406Z,992.05
2022-12-12T00:06:32.099Z,991.98
2022-12-12T00:11:31.992Z,992.00
2022-12-12T00:16:31.889Z,991.99
2022-12-12T00:21:31.908Z,991.99
2022-12-12T00:26:31.810Z,992.06
2022-12-12T00:31:31.865Z,992.02
2022-12-12T00:36:31.623Z,991.97
2022-12-12T00:43:03.627Z,992.06
2022-12-12T00:48:04.287Z,992.04
2022-12-12T00:53:03.157Z,992.13
2022-12-12T00:58:03.183Z,992.07
2022-12-12T01:03:12.617Z,992.17
2022-12-12T01:08:02.869Z,992.21
2022-12-12T01:13:02.913Z,992.25
2022-12-12T01:18:02.682Z,992.25
2022-12-12T01:23:02.696Z,992.25
2022-12-12T01:28:02.495Z,992.33
2022-12-12T01:33:05.725Z,992.32
2022-12-12T01:38:02.391Z,992.30
2022-12-12T01:43:02.457Z,992.29
2022-12-12T01:48:05.375Z,992.29
2022-12-12T01:53:09.807Z,992.36
2022-12-12T01:59:30.876Z,992.30
2022-12-12T02:07:22.149Z,992.38
2022-12-12T02:13:49.272Z,992.43
2022-12-12T02:18:49.105Z,992.40
2022-12-12T02:23:49.179Z,992.32
2022-12-12T02:28:48.979Z,992.33
2022-12-12T02:33:49.140Z,992.34
2022-12-12T02:38:57.646Z,992.35
2022-12-12T02:45:06.566Z,992.40
2022-12-12T02:50:06.355Z,992.44
2022-12-12T02:55:06.335Z,992.49
2022-12-12T03:00:06.129Z,992.51
2022-12-12T03:05:06.319Z,992.53
2022-12-12T03:10:06.081Z,992.53
2022-12-12T03:15:06.987Z,992.57
2022-12-12T03:20:05.820Z,992.56
2022-12-12T03:25:06.080Z,992.57
2022-12-12T03:30:05.797Z,992.51
2022-12-12T03:35:08.652Z,992.55
2022-12-12T03:40:05.680Z,992.55
2022-12-12T03:45:05.668Z,992.68
2022-12-12T03:50:05.531Z,992.52
2022-12-12T03:55:13.149Z,992.54
2022-12-12T04:00:12.923Z,992.58
2022-12-12T04:05:05.320Z,992.58
2022-12-12T04:10:05.232Z,992.54
2022-12-12T04:15:05.351Z,992.53
2022-12-12T04:20:05.161Z,992.60
2022-12-12T04:25:06.599Z,992.64
2022-12-12T04:30:05.061Z,992.71
2022-12-12T04:35:07.977Z,992.76
2022-12-12T04:40:04.848Z,992.67
2022-12-12T04:45:04.892Z,992.76
2022-12-12T04:50:04.964Z,992.80
2022-12-12T05:16:28.748Z,992.81
2022-12-12T05:21:25.810Z,992.86
2022-12-12T05:26:26.341Z,992.92
2022-12-12T05:31:25.543Z,992.95
2022-12-12T05:36:25.537Z,993.02
2022-12-12T05:41:25.521Z,993.01
2022-12-12T05:46:25.437Z,992.99
2022-12-12T05:51:25.393Z,993.00
2022-12-12T05:56:25.372Z,993.00
2022-12-12T06:01:25.312Z,992.96
2022-12-12T06:06:28.209Z,992.94
2022-12-12T06:11:25.094Z,992.96
2022-12-12T06:16:25.021Z,993.01
2022-12-12T06:21:24.950Z,993.02
2022-12-12T06:26:24.984Z,993.11
2022-12-12T06:31:25.122Z,993.12
2022-12-12T06:36:26.156Z,993.16
2022-12-12T06:41:24.660Z,993.24
2022-12-12T06:46:24.915Z,993.27
2022-12-12T06:51:24.656Z,993.33
2022-12-12T06:56:24.680Z,993.40
2022-12-12T07:01:24.633Z,993.45
2022-12-12T07:06:27.508Z,993.43
2022-12-12T07:11:24.369Z,993.40
2022-12-12T07:16:24.321Z,993.49
2022-12-12T07:21:24.219Z,993.52
2022-12-12T07:26:24.114Z,993.58
2022-12-12T07:31:24.912Z,993.54
2022-12-12T07:36:24.157Z,993.53
2022-12-12T07:41:24.039Z,993.64
2022-12-12T07:46:24.242Z,993.74
2022-12-12T07:51:23.835Z,993.78
2022-12-12T07:56:32.699Z,993.82
2022-12-12T08:01:30.759Z,993.77
2022-12-12T08:06:34.452Z,993.68
2022-12-12T08:11:23.522Z,993.78
2022-12-12T08:16:32.128Z,993.77
2022-12-12T08:21:26.116Z,993.80
2022-12-12T08:26:23.472Z,993.85
2022-12-12T08:31:23.491Z,993.89
2022-12-12T08:36:23.295Z,993.92
2022-12-12T08:41:23.303Z,993.92
2022-12-12T08:46:23.343Z,994.00
2022-12-12T08:51:23.324Z,994.06
2022-12-12T08:56:23.182Z,994.12
2022-12-12T09:01:22.932Z,994.17
2022-12-12T09:15:02.163Z,994.27
2022-12-12T09:20:02.531Z,994.16
2022-12-12T09:25:01.810Z,994.20
2022-12-12T09:53:58.199Z,994.33
2022-12-12T09:58:57.693Z,994.32
2022-12-12T10:05:26.380Z,994.28
2022-12-12T10:10:26.143Z,994.23
2022-12-12T10:15:26.160Z,994.33
2022-12-12T10:20:25.914Z,994.27
2022-12-12T10:25:26.062Z,994.29
2022-12-12T10:30:25.748Z,994.26
2022-12-12T10:35:35.675Z,994.24
2022-12-12T10:40:25.939Z,994.33
2022-12-12T10:45:25.802Z,994.31
2022-12-12T10:50:25.574Z,994.30
2022-12-12T10:55:28.988Z,994.22
2022-12-12T11:00:25.401Z,994.24
2022-12-12T11:05:25.378Z,994.24
2022-12-12T11:10:27.961Z,994.10
2022-12-12T11:15:27.198Z,994.09
2022-12-12T11:20:25.183Z,994.11
2022-12-12T11:25:25.252Z,994.03
2022-12-12T11:30:25.257Z,994.11
2022-12-12T11:35:25.236Z,994.11
2022-12-12T11:40:26.702Z,994.13
2022-12-12T11:55:34.370Z,994.17
2022-12-12T12:00:33.983Z,994.14
2022-12-12T12:05:33.974Z,994.15
2022-12-12T12:10:34.031Z,994.05
2022-12-12T12:15:34.350Z,994.11
2022-12-12T12:20:33.772Z,994.08
2022-12-12T12:25:33.702Z,994.07
2022-12-12T12:30:33.907Z,994.09
2022-12-12T12:35:33.749Z,994.05
2022-12-12T12:40:41.178Z,994.05
2022-12-12T12:45:44.265Z,994.11
2022-12-12T12:50:33.613Z,994.08
2022-12-12T12:55:33.405Z,994.05
2022-12-12T13:00:33.325Z,993.98
2022-12-12T13:05:33.304Z,993.93
2022-12-12T13:10:33.218Z,994.03
2022-12-12T13:15:33.355Z,994.06
2022-12-12T13:20:33.287Z,993.97
2022-12-12T13:25:33.364Z,994.05
2022-12-12T13:30:32.910Z,994.08
2022-12-12T13:35:32.885Z,994.06
2022-12-12T13:40:32.722Z,994.17
2022-12-12T13:45:35.812Z,994.20
2022-12-12T13:50:32.747Z,994.24
2022-12-12T13:55:32.557Z,994.26
2022-12-12T14:00:40.374Z,994.25
2022-12-12T14:06:51.157Z,994.36
2022-12-12T14:11:50.962Z,994.43
2022-12-12T14:17:01.013Z,994.46
2022-12-12T14:21:50.888Z,994.41
2022-12-12T14:27:12.528Z,994.35
2022-12-12T14:33:29.801Z,994.52
2022-12-12T14:40:48.414Z,994.53
2022-12-12T14:45:47.188Z,994.59
2022-12-12T15:00:53.117Z,994.74
2022-12-12T15:07:16.004Z,994.78
2022-12-12T15:12:16.052Z,994.85
2022-12-12T15:17:15.774Z,994.86
2022-12-12T15:22:16.608Z,994.88
2022-12-12T15:27:16.198Z,994.96
2022-12-12T15:32:23.180Z,994.98
2022-12-12T15:40:34.485Z,994.97
2022-12-12T15:46:52.974Z,995.05
2022-12-12T15:52:02.353Z,995.03
2022-12-12T15:56:51.980Z,995.14
2022-12-12T16:03:11.323Z,995.00
2022-12-12T16:21:40.621Z,995.11
2022-12-12T16:27:57.696Z,995.13
2022-12-12T16:37:25.559Z,995.00
2022-12-12T16:42:23.559Z,995.06
2022-12-12T16:55:54.946Z,995.24
2022-12-12T17:17:35.630Z,995.44
2022-12-12T17:24:14.170Z,995.44
2022-12-12T19:52:49.384Z,996.25
2022-12-12T20:57:32.756Z,996.25
2022-12-12T21:05:43.034Z,996.18
2022-12-12T21:10:46.851Z,996.23
2022-12-12T21:17:24.628Z,996.26
2022-12-12T21:22:23.102Z,996.28
2022-12-12T21:27:23.151Z,996.36
2022-12-12T21:32:22.978Z,996.33
2022-12-12T21:58:30.626Z,996.35
